地図

経路データ

SID SEASON NUMBER BASIN SUBBASIN NAME ISO_TIME NATURE LAT LON WMO_WIND WMO_PRES WMO_AGENCY TRACK_TYPE DIST2LAND LANDFALL IFLAG USA_AGENCY USA_ATCF_ID USA_LAT USA_LON USA_RECORD USA_STATUS USA_WIND USA_PRES USA_SSHS USA_R34_NE USA_R34_SE USA_R34_SW USA_R34_NW USA_R50_NE USA_R50_SE USA_R50_SW USA_R50_NW USA_R64_NE USA_R64_SE USA_R64_SW USA_R64_NW USA_POCI USA_ROCI USA_RMW USA_EYE TOKYO_LAT TOKYO_LON TOKYO_GRADE TOKYO_WIND TOKYO_PRES TOKYO_R50_DIR TOKYO_R50_LONG TOKYO_R50_SHORT TOKYO_R30_DIR TOKYO_R30_LONG TOKYO_R30_SHORT TOKYO_LAND CMA_LAT CMA_LON CMA_CAT CMA_WIND CMA_PRES HKO_LAT HKO_LON HKO_CAT HKO_WIND HKO_PRES NEWDELHI_LAT NEWDELHI_LON NEWDELHI_GRADE NEWDELHI_WIND NEWDELHI_PRES NEWDELHI_CI NEWDELHI_DP NEWDELHI_POCI REUNION_LAT REUNION_LON REUNION_TYPE REUNION_WIND REUNION_PRES REUNION_TNUM REUNION_CI REUNION_RMW REUNION_R34_NE REUNION_R34_SE REUNION_R34_SW REUNION_R34_NW REUNION_R50_NE REUNION_R50_SE REUNION_R50_SW REUNION_R50_NW REUNION_R64_NE REUNION_R64_SE REUNION_R64_SW REUNION_R64_NW BOM_LAT BOM_LON BOM_TYPE BOM_WIND BOM_PRES BOM_TNUM BOM_CI BOM_RMW BOM_R34_NE BOM_R34_SE BOM_R34_SW BOM_R34_NW BOM_R50_NE BOM_R50_SE BOM_R50_SW BOM_R50_NW BOM_R64_NE BOM_R64_SE BOM_R64_SW BOM_R64_NW BOM_ROCI BOM_POCI BOM_EYE BOM_POS_METHOD BOM_PRES_METHOD NADI_LAT NADI_LON NADI_CAT NADI_WIND NADI_PRES WELLINGTON_LAT WELLINGTON_LON WELLINGTON_WIND WELLINGTON_PRES DS824_LAT DS824_LON DS824_STAGE DS824_WIND DS824_PRES TD9636_LAT TD9636_LON TD9636_STAGE TD9636_WIND TD9636_PRES TD9635_LAT TD9635_LON TD9635_WIND TD9635_PRES TD9635_ROCI NEUMANN_LAT NEUMANN_LON NEUMANN_CLASS NEUMANN_WIND NEUMANN_PRES MLC_LAT MLC_LON MLC_CLASS MLC_WIND MLC_PRES USA_GUST BOM_GUST BOM_GUST_PER REUNION_GUST REUNION_GUST_PER USA_SEAHGT USA_SEARAD_NE USA_SEARAD_SE USA_SEARAD_SW USA_SEARAD_NW STORM_SPEED STORM_DIR
1970324S08092 1971 149 SI WA CARMEN 1970-11-20 00:00:00 TS -8.00000 92.0000 1002 bom main 1040 1040 ______O__O____ -1 -8.00000 92.0000 1002 -8.00000 92.0000 TC 25 1002 12 210
1970324S08092 1971 149 SI WA CARMEN 1970-11-20 03:00:00 TS -8.50002 91.7026 1002 bom main 1103 1103 ______O__P____ -1 -8.50000 91.7000 1002 -8.50003 91.7051 TC 25 1002 12 211
1970324S08092 1971 149 SI WA CARMEN 1970-11-20 06:00:00 TS -9.00000 91.4000 1002 bom main 1165 1165 ______O__O____ -1 -9.00000 91.4000 1002 -9.00000 91.4000 TC 25 1002 12 211
1970324S08092 1971 149 SI WA CARMEN 1970-11-20 09:00:00 TS -9.50000 91.0925 1002 bom main 1228 1228 ______O__P____ -1 -9.50000 91.1000 1002 -9.50001 91.0850 TC 27 1001 12 211
1970324S08092 1971 149 SI WA CARMEN 1970-11-20 12:00:00 TS -10.0000 90.8000 1001 bom main 1291 1291 ______O__O____ -1 -10.0000 90.8000 1001 -10.0000 90.8000 TC 30 1001 11 206
1970324S08092 1971 149 SI WA CARMEN 1970-11-20 15:00:00 TS -10.5000 90.5924 1001 bom main 1346 1346 ______O__P____ -1 -10.5000 90.6000 1001 -10.5000 90.5849 TC 30 1001 11 202
1970324S08092 1971 149 SI WA CARMEN 1970-11-20 18:00:00 TS -11.0000 90.4000 1001 bom main 1402 1402 ______O__O____ -1 -11.0000 90.4000 1001 -11.0000 90.4000 TC 30 1001 11 202
1970324S08092 1971 149 SI WA CARMEN 1970-11-20 21:00:00 TS -11.5188 90.1813 1001 bom main 1458 1458 ______O__P____ -1 -11.5000 90.2000 1001 -11.5375 90.1627 TC 30 1001 11 201
1970324S08092 1971 149 SI WA CARMEN 1970-11-21 00:00:00 TS -12.0000 90.0000 1001 bom main 1515 1515 ______O__O____ -1 -12.0000 90.0000 1001 -12.0000 90.0000 TC 30 1001 8 194
1970324S08092 1971 149 SI WA CARMEN 1970-11-21 03:00:00 TS -12.2437 90.0024 1001 bom main 1532 1532 ______O__P____ -1 -12.2000 90.0000 1001 -12.2875 90.0049 TC 30 1001 5 169
1970324S08092 1971 149 SI WA CARMEN 1970-11-21 06:00:00 TS -12.5000 90.1000 1001 bom main 1551 1551 ______O__O____ -1 -12.5000 90.1000 1001 -12.5000 90.1000 TC 30 1001 5 158
1970324S08092 1971 149 SI WA CARMEN 1970-11-21 09:00:00 TS -12.7250 90.1963 1000 bom main 1561 1561 ______O__P____ -1 -12.7000 90.2000 1000 -12.7500 90.1925 TC 30 1000 5 159
1970324S08092 1971 149 SI WA CARMEN 1970-11-21 12:00:00 TS -13.0000 90.3000 1000 bom main 1581 1581 ______O__O____ -1 -13.0000 90.3000 1000 -13.0000 90.3000 TC 30 1000 6 161
1970324S08092 1971 149 SI WA CARMEN 1970-11-21 15:00:00 TS -13.2787 90.3963 1000 bom main 1601 1563 ______O__P____ -1 -13.3000 90.4000 1000 -13.2575 90.3925 TC 30 1000 8 114
1970324S08092 1971 149 SI WA CARMEN 1970-11-21 18:00:00 TS -13.3091 91.0182 1000 bom main 1563 1551 O_____O__OO___ jtwc_sh SH031971 -12.8000 92.4000 -1 -13.5000 90.5000 1000 -13.5000 90.5000 TC 30 1000 -12.8000 92.4000 7 9 97
1970324S08092 1971 149 SI WA CARMEN 1970-11-21 21:00:00 TS -13.3956 91.3637 999 bom main 1549 1543 P_____O__PP___ SH031971 -12.9825 92.3500 -1 -13.7000 90.6000 999 -13.6925 90.6500 TC 32 999 -13.0188 92.3455 7 6 112
1970324S08092 1971 149 SI WA CARMEN 1970-11-22 00:00:00 TS -13.5383 91.5928 998 bom main 1547 1547 O_____O__OP___ jtwc_sh SH031971 -13.2000 92.3000 -1 -13.9000 90.8000 998 -13.9000 90.8000 TC 35 998 -13.2501 92.2927 7 5 138
1970324S08092 1971 149 SI WA CARMEN 1970-11-22 03:00:00 TS -13.7708 91.7117 997 bom main 1570 1570 P_____O__PP___ SH031971 -13.4775 92.2500 -1 -14.2000 90.9000 997 -14.1925 90.9150 TC 35 997 -13.5063 92.2436 7 6 167
1970324S08092 1971 149 SI WA CARMEN 1970-11-22 06:00:00 TS -14.0800 91.7200 996 bom main 1599 1599 O_____O__OO___ jtwc_sh SH031971 -13.8000 92.2000 -1 -14.5000 91.0000 996 -14.5000 91.0000 TC 35 996 -13.8000 92.2000 2 6 179
1970324S08092 1971 149 SI WA CARMEN 1970-11-22 09:00:00 TS -14.3975 91.7266 995 bom main 1628 1628 P_____O__PP___ SH031971 -14.1425 92.1575 -1 -14.8000 91.1000 995 -14.7650 91.0575 TC 37 995 -14.1374 92.1604 2 6 182
1970324S08092 1971 149 SI WA CARMEN 1970-11-22 12:00:00 TS -14.7000 91.7019 994 bom main 1657 1657 O_____O__OP___ jtwc_sh SH031971 -14.5000 92.1000 -1 -15.0000 91.1000 994 -15.0000 91.1000 TC 40 994 -14.4998 92.1097 2 6 184
1970324S08092 1971 149 SI WA CARMEN 1970-11-22 15:00:00 TS -15.0000 91.6893 993 bom main 1686 1686 P_____O__PP___ SH031971 -14.8650 92.0299 -1 -15.2000 91.2000 993 -15.2075 91.1575 TC 42 993 -14.8623 92.0291 2 6 188
1970324S08092 1971 149 SI WA CARMEN 1970-11-22 18:00:00 TS -15.2800 91.6200 992 bom main 1721 1721 O_____O__OO___ jtwc_sh SH031971 -15.2000 91.9000 -1 -15.4000 91.2000 992 -15.4000 91.2000 TC 45 992 -15.2000 91.9000 2 6 200
1970324S08092 1971 149 SI WA CARMEN 1970-11-22 21:00:00 TS -15.5204 91.4928 991 bom main 1746 1746 P_____O__PP___ SH031971 -15.4650 91.6725 -1 -15.6000 91.2000 991 -15.5850 91.2225 TC 45 991 -15.4870 91.6964 2 5 211
1970324S08092 1971 149 SI WA CARMEN 1970-11-23 00:00:00 TS -15.7490 91.3290 990 bom main 1776 1776 O_____O__OP___ jtwc_sh SH031971 -15.7000 91.4000 -1 -15.8000 91.2000 990 -15.8000 91.2000 TC 45 990 -15.7452 91.4452 2 6 215
1970324S08092 1971 149 SI WA CARMEN 1970-11-23 03:00:00 TS -16.0176 91.1373 990 bom main 1815 1815 P_____O__PP___ SH031971 -15.9575 91.1500 -1 -16.1000 91.1000 990 -16.0925 91.1151 TC 45 991 -15.9807 91.1714 2 7 215
1970324S08092 1971 149 SI WA CARMEN 1970-11-23 06:00:00 TS -16.2800 90.9400 992 bom main 1855 1855 O_____O__OO___ jtwc_sh SH031971 -16.2000 90.9000 -1 -16.4000 91.0000 992 -16.4000 91.0000 TC 45 992 -16.2000 90.9000 2 6 216
1970324S08092 1971 149 SI WA CARMEN 1970-11-23 09:00:00 TS -16.5203 90.7528 994 bom main 1880 1880 P_____O__PP___ SH031971 -16.4075 90.6424 -1 -16.7000 90.9000 994 -16.6725 90.9075 TC 40 994 -16.4142 90.6716 2 6 219
1970324S08092 1971 149 SI WA CARMEN 1970-11-23 12:00:00 TS -16.7230 90.5699 996 bom main 1910 1910 O_____O__OP___ jtwc_sh SH031971 -16.6000 90.4000 -1 -16.9000 90.8000 996 -16.9000 90.8000 TC 35 996 -16.6148 90.4496 2 5 221
1970324S08092 1971 149 SI WA CARMEN 1970-11-23 15:00:00 TS -16.9146 90.3985 998 bom main 1940 1940 P_____O__PP___ SH031971 -16.7999 90.1999 -1 -17.1000 90.7000 998 -17.0650 90.6650 TC 32 997 -16.8080 90.2279 2 5 225
1970324S08092 1971 149 SI WA CARMEN 1970-11-23 18:00:00 TS -17.0800 90.2000 999 bom main 1970 1970 O_____O__OO___ jtwc_sh SH031971 -17.0000 90.0000 -1 -17.2000 90.5000 999 -17.2000 90.5000 TC 30 999 -17.0000 90.0000 2 5 228
1970324S08092 1971 149 SI MM CARMEN 1970-11-23 21:00:00 TS -17.2684 89.9913 1001 bom main 2000 2000 P_____O__PP___ SH031971 -17.2000 89.7575 -1 -17.4000 90.3000 1001 -17.3423 90.3523 TC 27 1000 -17.1996 89.7893 2 6 230
1970324S08092 1971 149 SI MM CARMEN 1970-11-24 00:00:00 TS -17.4399 89.7534 1002 bom main 2020 2020 O_____O__OP___ jtwc_sh SH031971 -17.4000 89.5000 -1 -17.5000 90.1000 1002 -17.5000 90.1000 TC 25 1002 -17.3994 89.5669 2 6 235
1970324S08092 1971 149 SI MM CARMEN 1970-11-24 03:00:00 TS -17.6384 89.4417 1003 bom main 2061 2061 P_____O__PP___ SH031971 -17.5999 89.2724 -1 -17.7000 89.7000 1003 -17.6926 89.6525 TC 25 1002 -17.5995 89.3111 2 8 239
1970324S08092 1971 149 SI MM CARMEN 1970-11-24 06:00:00 TS -17.8400 89.0400 1003 bom main 2102 2102 O_____O__OO___ jtwc_sh SH031971 -17.8000 89.0000 -1 -17.9000 89.1000 1003 -17.9000 89.1000 TC 25 1003 -17.8000 89.0000 1 9 243
1970324S08092 1971 149 SI MM CARMEN 1970-11-24 09:00:00 TS -18.0437 88.6106 1004 bom main 2144 2144 P_____O__PP___ SH031971 -17.9999 88.6374 -1 -18.1000 88.6000 1004 -18.1150 88.5426 TC 22 1003 -18.0038 88.6357 1 10 245
1970324S08092 1971 149 SI MM CARMEN 1970-11-24 12:00:00 TS -18.2414 88.1224 1004 bom main 2192 2192 O_____O__OP___ jtwc_sh SH031971 -18.2000 88.2000 -1 -18.3000 88.0000 1004 -18.3000 88.0000 TC 20 1004 -18.2069 88.2122 1 10 248
1970324S08092 1971 149 SI MM CARMEN 1970-11-24 15:00:00 TS -18.4057 87.6699 1005 bom main 2234 2234 P_____O__PP___ SH031971 -18.3998 87.7373 -1 -18.4000 87.6000 1005 -18.4222 87.5423 TC 20 1004 -18.4066 87.7325 1 10 251
1970324S08092 1971 149 SI MM CARMEN 1970-11-24 18:00:00 TS -18.5600 87.1600 1005 bom main 2282 2282 O_____O__OO___ jtwc_sh SH031971 -18.6000 87.2000 -1 -18.5000 87.1000 1005 -18.5000 87.1000 TC 20 1005 -18.6000 87.2000 1 11 253
1970324S08092 1971 149 SI MM CARMEN 1970-11-24 21:00:00 TS -18.7190 86.5895 1006 bom main 2329 2329 P_____O__PP___ SH031971 -18.8076 86.5650 -1 -18.6000 86.6000 1006 -18.5649 86.6075 TC 17 1005 -18.8152 86.6098 1 11 256
1970324S08092 1971 149 SI MM CARMEN 1970-11-25 00:00:00 TS -18.8436 85.9947 1006 bom main 2376 2376 O_____O__OP___ jtwc_sh SH031971 -19.0000 85.9000 -1 -18.6000 86.1000 1006 -18.6000 86.1000 TC 15 1006 -19.0182 85.9736 1 11 258
1970324S08092 1971 149 SI MM CARMEN 1970-11-25 03:00:00 TS -18.9523 85.4206 1006 bom main 2432 2432 P_____O__PP___ SH031971 -19.1798 85.2850 -1 -18.6000 85.6000 1006 -18.6148 85.6075 TC 15 1006 -19.1870 85.3255 1 11 261
1970324S08092 1971 149 SI MM CARMEN 1970-11-25 06:00:00 TS -19.0200 84.8600 1006 bom main 2466 2466 O_____O__OO___ jtwc_sh SH031971 -19.3000 84.7000 -1 -18.6000 85.1000 1006 -18.6000 85.1000 TC 15 1006 -19.3000 84.7000 1 10 267
1970324S08092 1971 149 SI MM CARMEN 1970-11-25 09:00:00 TS -19.0129 84.3173 1006 bom main 2507 2507 P_____O__PP___ SH031971 -19.3298 84.1348 -1 -18.5000 84.6000 1006 -18.5646 84.5876 TC 15 1006 -19.3400 84.1292 1 10 272
1970324S08092 1971 149 SI MM CARMEN 1970-11-25 12:00:00 TS -18.9849 83.7578 1006 bom main 2542 2542 O_____O__OP___ jtwc_sh SH031971 -19.3000 83.6000 -1 -18.5000 84.0000 1006 -18.5000 84.0000 TC 15 1006 -19.3243 83.5891 1 11 275
1970324S08092 1971 149 SI MM CARMEN 1970-11-25 15:00:00 TS -18.9203 83.1629 1006 bom main 2576 2576 P_____O__PP___ SH031971 -19.2574 83.0775 -1 -18.4000 83.3000 1006 -18.4150 83.2800 TC 15 1006 -19.2714 83.0795 1 11 274
1970324S08092 1971 149 SI MM CARMEN 1970-11-25 18:00:00 TS -18.9000 82.5667 1006 bom main 2600 2537 O_____O__OO___ jtwc_sh SH031971 -19.2000 82.6000 -1 -18.3000 82.5000 1006 -18.3000 82.5000 TC 15 1006 -19.2000 82.6000 1 11 271
1970324S08092 1971 149 SI MM CARMEN 1970-11-25 21:00:00 TS -18.9080 82.0179 1006 bom main 2537 2506 P_____O__PP___ SH031971 -19.1573 82.1926 -1 -18.2000 81.3000 1006 -18.1579 81.7398 TC 15 1006 -19.1384 82.1666 1 8 268
1970324S08092 1971 149 SI MM CARMEN 1970-11-26 00:00:00 TS -18.9325 81.6736 1006 bom main 2506 2473 O_____O__OP___ jtwc_sh SH031971 -19.1000 81.8000 -1 -18.0000 81.0000 1006 -18.0000 81.0000 TC 15 1006 -19.0636 81.7576 1 6 262
1970324S08092 1971 149 SI MM CARMEN 1970-11-26 03:00:00 TS -18.9939 81.3632 main 2473 2422 P_________P___ SH031971 -18.9998 81.3724 -1 TC -18.9821 81.3448 1 7 273
1970324S08092 1971 149 SI MM CARMEN 1970-11-26 06:00:00 TS -18.9000 80.9000 main 2422 2370 O_________O___ jtwc_sh SH031971 -18.9000 80.9000 -1 -18.9000 80.9000 1 9 279
1970324S08092 1971 149 SI MM CARMEN 1970-11-26 09:00:00 TS -18.8484 80.3722 main 2372 2309 P_________P___ SH031971 -18.8500 80.3652 -1 -18.8453 80.3864 1 10 276
1970324S08092 1971 149 SI MM CARMEN 1970-11-26 12:00:00 TS -18.7958 79.8128 main 2309 2259 O_________P___ jtwc_sh SH031971 -18.8000 79.8000 -1 -18.7874 79.8382 1 11 277
1970324S08092 1971 149 SI MM CARMEN 1970-11-26 15:00:00 TS -18.7185 79.2571 main 2259 2198 P_________P___ SH031971 -18.7223 79.2501 -1 -18.7108 79.2709 1 11 281
1970324S08092 1971 149 SI MM CARMEN 1970-11-26 18:00:00 TS -18.6000 78.7000 main 2198 2149 O_________O___ jtwc_sh SH031971 -18.6000 78.7000 -1 -18.6000 78.7000 1 11 286
1970324S08092 1971 149 SI MM CARMEN 1970-11-26 21:00:00 TS -18.4124 78.1429 main 2138 2090 P_________P___ SH031971 -18.4148 78.1500 -1 -18.4074 78.1288 1 11 291
1970324S08092 1971 149 SI MM CARMEN 1970-11-27 00:00:00 TS -18.1950 77.5871 main 2090 2042 O_________P___ jtwc_sh SH031971 -18.2000 77.6000 -1 -18.1850 77.5613 1 11 292
1970324S08092 1971 149 SI MM CARMEN 1970-11-27 03:00:00 TS -17.9750 77.0277 main 2031 1984 P_________P___ SH031971 -17.9775 77.0349 -1 -17.9700 77.0132 1 11 291
1970324S08092 1971 149 SI MM CARMEN 1970-11-27 06:00:00 TS -17.8000 76.5000 main 1984 1944 O_________O___ jtwc_sh SH031971 -17.8000 76.5000 -1 -17.8000 76.5000 1 10 285
1970324S08092 1971 149 SI MM CARMEN 1970-11-27 09:00:00 TS -17.7238 76.0372 main 1934 1892 P_________P___ SH031971 -17.7198 76.0277 -1 -17.7318 76.0563 1 8 277
1970324S08092 1971 149 SI MM CARMEN 1970-11-27 12:00:00 TS -17.7037 75.6146 main 1892 1851 O_________P___ jtwc_sh SH031971 -17.7000 75.6000 -1 -17.7112 75.6438 1 8 271
1970324S08092 1971 149 SI MM CARMEN 1970-11-27 15:00:00 TS -17.7082 75.2165 main 1851 1810 P_________P___ SH031971 -17.7073 75.2077 -1 -17.7100 75.2343 1 8 270
1970324S08092 1971 149 SI MM CARMEN 1970-11-27 18:00:00 TS -17.7000 74.8000 main 1810 1760 O_________O___ jtwc_sh SH031971 -17.7000 74.8000 -1 -17.7000 74.8000 1 9 276
1970324S08092 1971 149 SI MM CARMEN 1970-11-27 21:00:00 TS -17.6155 74.3093 main 1760 1711 P_________P___ SH031971 -17.6074 74.3224 -1 -17.6315 74.2831 1 10 281
1970324S08092 1971 149 SI MM CARMEN 1970-11-28 00:00:00 TS -17.5168 73.7807 main 1711 1659 O_________P___ jtwc_sh SH031971 -17.5000 73.8000 -1 -17.5504 73.7421 1 10 279
1970324S08092 1971 149 SI MM CARMEN 1970-11-28 03:00:00 TS -17.4464 73.2250 main 1652 1600 P_________P___ SH031971 -17.4351 73.2350 -1 -17.4690 73.2050 1 10 276
1970324S08092 1971 149 SI MM CARMEN 1970-11-28 06:00:00 TS -17.4000 72.7000 main 1600 1559 O_________O___ jtwc_sh SH031971 -17.4000 72.7000 -1 -17.4000 72.7000 1 9 274
1970324S08092 1971 149 SI MM CARMEN 1970-11-28 09:00:00 TS -17.3864 72.2827 main 1559 1518 P_________P___ SH031971 -17.3998 72.2776 -1 -17.3595 72.2928 1 8 272
1970324S08092 1971 149 SI MM CARMEN 1970-11-28 12:00:00 TS -17.3778 71.9051 main 1518 1487 O_________P___ jtwc_sh SH031971 -17.4000 71.9000 -1 -17.3335 71.9153 1 7 274
1970324S08092 1971 149 SI MM CARMEN 1970-11-28 15:00:00 TS -17.3384 71.5300 main 1480 1439 P_________P___ SH031971 -17.3497 71.5299 -1 -17.3157 71.5302 1 8 276
1970324S08092 1971 149 SI MM CARMEN 1970-11-28 18:00:00 TS -17.3000 71.1000 main 1439 1388 O_________O___ jtwc_sh SH031971 -17.3000 71.1000 -1 -17.3000 71.1000 1 10 273
1970324S08092 1971 149 SI MM CARMEN 1970-11-28 21:00:00 TS -17.2919 70.5334 main 1377 1326 P_________P___ SH031971 -17.3001 70.5226 -1 -17.2755 70.5550 1 11 271
1970324S08092 1971 149 SI MM CARMEN 1970-11-29 00:00:00 TS -17.2836 69.9217 main 1316 1269 O_________P___ jtwc_sh SH031971 -17.3000 69.9000 -1 -17.2507 69.9650 1 11 273
1970324S08092 1971 149 SI MM CARMEN 1970-11-29 03:00:00 TS -17.2418 69.3408 main 1259 1208 P_________P___ SH031971 -17.2499 69.3274 -1 -17.2255 69.3675 1 11 274
1970324S08092 1971 149 SI MM CARMEN 1970-11-29 06:00:00 TS -17.2000 68.8000 main 1208 1168 O_________O___ jtwc_sh SH031971 -17.2000 68.8000 -1 -17.2000 68.8000 1 10 273
1970324S08092 1971 149 SI MM CARMEN 1970-11-29 09:00:00 TS -17.1913 68.3295 main 1158 1118 P_________P___ SH031971 -17.1998 68.3351 -1 -17.1742 68.3182 1 9 271
1970324S08092 1971 149 SI MM CARMEN 1970-11-29 12:00:00 TS -17.1830 67.8900 main 1118 1078 O_________P___ jtwc_sh SH031971 -17.2000 67.9000 -1 -17.1490 67.8701 1 8 273
1970324S08092 1971 149 SI MM CARMEN 1970-11-29 15:00:00 TS -17.1414 67.4456 main 1072 1032 P_________P___ SH031971 -17.1499 67.4499 -1 -17.1243 67.4370 1 9 276
1970324S08092 1971 149 SI MM CARMEN 1970-11-29 18:00:00 TS -17.1000 67.0000 main 1032 993 O_________O___ jtwc_sh SH031971 -17.1000 67.0000 -1 -17.1000 67.0000 1 9 273
1970324S08092 1971 149 SI MM CARMEN 1970-11-29 21:00:00 TS -17.0918 66.5533 main 993 944 P_________P___ SH031971 -17.0998 66.5576 -1 -17.0758 66.5446 1 9 271
1970324S08092 1971 149 SI MM CARMEN 1970-11-30 00:00:00 TS -17.0838 66.0908 main 944 896 O_________P___ jtwc_sh SH031971 -17.1000 66.1000 -1 -17.0513 66.0724 1 9 273
1970324S08092 1971 149 SI MM CARMEN 1970-11-30 03:00:00 TS -17.0506 65.6029 main 896 852 P_________P___ SH031971 -17.0628 65.6099 -1 -17.0261 65.5889 1 10 275
1970324S08092 1971 149 SI MM CARMEN 1970-11-30 06:00:00 TS -17.0000 65.1000 main 852 O_________O___ jtwc_sh SH031971 -17.0000 65.1000 -1 -17.0000 65.1000 1 10 276

IBTrACS Databaseについて

本データベースは、米国NOAAが公開する1842年以降の世界の熱帯低気圧のベストトラックデータアーカイブInternational Best Track Archive for Climate Stewardship (IBTrACS)を、ウェブで閲覧しやすい形式に変換したものです。

最終更新日:2021-10-08